Ryouei Maru — JL6703 — position and weather

sailwx.info

Track history (hours):
 
Tides and Currents Weather Stations Pressure Air Temp Water Temp Dewpoint Dewpoint Depression Visibility Wind Speed Wind Dir Waves Ship Positions

Ryouei Maru

Last reported at 2014-Nov-27 15:10 UTC. Time now 2014-Nov-29 08:39 UTC.
Position N 33°57' E 134°59'.

Length 95 m; draft 5 m.

Type: Cargo ship. MMSI: 431501749.

Date/timePositionNaut miles runAvg speedWind from/ knotsBaromVisibWave heightAir tempDewpointWater temp
2014-Nov-27 15:10N 33°57' E 134°59'813.5
2014-Nov-27 14:33N 34°06' E 134°59'1513.1
2014-Nov-27 13:25N 34°20' E 134°59'1213.3
2014-Nov-27 12:33N 34°29' E 135°09'1313.4
2014-Nov-27 11:33N 34°37' E 135°21'4 3.1
2014-Nov-27 10:24N 34°37' E 135°26'0 0.1
2014-Nov-27 09:30N 34°37' E 135°26'0 0.0
2014-Nov-27 07:24N 34°37' E 135°26'0 0.1
2014-Nov-27 06:30N 34°37' E 135°26'0 0.0
2014-Nov-27 01:06N 34°37' E 135°26'0 0.0
2014-Nov-27 00:12N 34°37' E 135°26'0 0.0
2014-Nov-26 23:18N 34°37' E 135°26'0 0.0
2014-Nov-26 22:33N 34°37' E 135°26'7 6.6
2014-Nov-26 21:33N 34°35' E 135°18'0 0.1
2014-Nov-26 20:32N 34°35' E 135°18'0 0.0
2014-Nov-26 19:32N 34°35' E 135°18'9 8.8
2014-Nov-26 18:34N 34°28' E 135°11'1311.3
2014-Nov-26 17:23N 34°18' E 135°01'910.6
2014-Nov-26 16:31N 34°09' E 135°00'1211.7
2014-Nov-26 15:31N 33°58' E 135°01'  
2014-Nov-21 15:34N 34°01' E 134°59'1414.1
2014-Nov-21 14:34N 34°15' E 134°58'1413.5
2014-Nov-21 13:33N 34°27' E 135°06'1313.2
2014-Nov-21 12:33N 34°36' E 135°18'6 6.3
2014-Nov-21 11:32N 34°37' E 135°26'0 0.0
2014-Nov-21 10:26N 34°37' E 135°26'0 0.0
2014-Nov-21 01:08N 34°37' E 135°26'0 0.0
2014-Nov-20 22:26N 34°37' E 135°26'4 4.2
2014-Nov-20 21:33N 34°36' E 135°21'3 2.6
2014-Nov-20 20:31N 34°35' E 135°18'0 0.0
2014-Nov-20 19:31N 34°35' E 135°18'4 3.8
2014-Nov-20 18:33N 34°33' E 135°15'1212.3
2014-Nov-20 17:33N 34°23' E 135°05'1110.8
2014-Nov-20 16:30N 34°13' E 134°60'1212.3
2014-Nov-20 15:33N 34°01' E 135°01'  
Track history (hours):
 
Tides and Currents Weather Stations Pressure Air Temp Water Temp Dewpoint Dewpoint Depression Visibility Wind Speed Wind Dir Waves Ship Positions

Ryouei Maru

Last reported at 2014-Nov-27 15:10 UTC. Time now 2014-Nov-29 08:39 UTC.
Position N 33°57' E 134°59'.

Length 95 m; draft 5 m.

Type: Cargo ship. MMSI: 431501749.

Date/timePositionNaut miles runAvg speedWind from/ knotsBaromVisibWave heightAir tempDewpointWater temp
2014-Nov-27 15:10N 33°57' E 134°59'813.5
2014-Nov-27 14:33N 34°06' E 134°59'1513.1
2014-Nov-27 13:25N 34°20' E 134°59'1213.3
2014-Nov-27 12:33N 34°29' E 135°09'1313.4
2014-Nov-27 11:33N 34°37' E 135°21'4 3.1
2014-Nov-27 10:24N 34°37' E 135°26'0 0.1
2014-Nov-27 09:30N 34°37' E 135°26'0 0.0
2014-Nov-27 07:24N 34°37' E 135°26'0 0.1
2014-Nov-27 06:30N 34°37' E 135°26'0 0.0
2014-Nov-27 01:06N 34°37' E 135°26'0 0.0
2014-Nov-27 00:12N 34°37' E 135°26'0 0.0
2014-Nov-26 23:18N 34°37' E 135°26'0 0.0
2014-Nov-26 22:33N 34°37' E 135°26'7 6.6
2014-Nov-26 21:33N 34°35' E 135°18'0 0.1
2014-Nov-26 20:32N 34°35' E 135°18'0 0.0
2014-Nov-26 19:32N 34°35' E 135°18'9 8.8
2014-Nov-26 18:34N 34°28' E 135°11'1311.3
2014-Nov-26 17:23N 34°18' E 135°01'910.6
2014-Nov-26 16:31N 34°09' E 135°00'1211.7
2014-Nov-26 15:31N 33°58' E 135°01'  
2014-Nov-21 15:34N 34°01' E 134°59'1414.1
2014-Nov-21 14:34N 34°15' E 134°58'1413.5
2014-Nov-21 13:33N 34°27' E 135°06'1313.2
2014-Nov-21 12:33N 34°36' E 135°18'6 6.3
2014-Nov-21 11:32N 34°37' E 135°26'0 0.0
2014-Nov-21 10:26N 34°37' E 135°26'0 0.0
2014-Nov-21 01:08N 34°37' E 135°26'0 0.0
2014-Nov-20 22:26N 34°37' E 135°26'4 4.2
2014-Nov-20 21:33N 34°36' E 135°21'3 2.6
2014-Nov-20 20:31N 34°35' E 135°18'0 0.0
2014-Nov-20 19:31N 34°35' E 135°18'4 3.8
2014-Nov-20 18:33N 34°33' E 135°15'1212.3
2014-Nov-20 17:33N 34°23' E 135°05'1110.8
2014-Nov-20 16:30N 34°13' E 134°60'1212.3
2014-Nov-20 15:33N 34°01' E 135°01'  

Dump ship's entire track history